createdAt,value
2022-12-17T06:50:55.845Z,-0.20
2022-12-17T06:56:17.341Z,-0.30
2022-12-17T07:01:37.764Z,-0.40
2022-12-17T07:06:58.338Z,-0.40
2022-12-17T07:12:18.445Z,-0.50
2022-12-17T07:17:38.964Z,-0.50
2022-12-17T07:22:59.464Z,-0.60
2022-12-17T07:28:19.792Z,-0.60
2022-12-17T07:33:39.987Z,-0.80
2022-12-17T07:39:00.486Z,-0.80
2022-12-17T07:44:20.859Z,-0.90
2022-12-17T07:49:41.539Z,-0.90
2022-12-17T07:55:01.643Z,-0.90
2022-12-17T08:00:23.063Z,-1.00
2022-12-17T08:05:43.340Z,-1.00
2022-12-17T08:11:08.152Z,-1.00
2022-12-17T08:16:28.391Z,-1.00
2022-12-17T08:21:48.848Z,-0.90
2022-12-17T08:27:09.421Z,-0.90
2022-12-17T08:32:29.587Z,-0.90
2022-12-17T08:37:50.009Z,-0.80
2022-12-17T08:43:15.842Z,-0.80
2022-12-17T08:48:36.238Z,-0.80
2022-12-17T08:53:56.667Z,-0.80
2022-12-17T08:59:17.115Z,-0.70
2022-12-17T09:04:37.314Z,-0.70
2022-12-17T09:09:57.506Z,-0.70
2022-12-17T09:15:18.025Z,-0.70
2022-12-17T09:20:38.433Z,-0.70
2022-12-17T09:25:58.707Z,-0.70
2022-12-17T09:31:19.609Z,-0.70
2022-12-17T09:36:39.925Z,-0.70
2022-12-17T09:42:24.445Z,-0.60
2022-12-17T09:48:08.908Z,-0.60
2022-12-17T09:53:57.098Z,-0.60
2022-12-17T09:59:17.848Z,-0.60
2022-12-17T10:05:03.320Z,-0.60
2022-12-17T10:10:38.060Z,-0.60
2022-12-17T10:16:03.190Z,-0.50
2022-12-17T10:21:33.213Z,-0.50
2022-12-17T10:26:54.052Z,-0.50
2022-12-17T10:32:19.720Z,-0.50
2022-12-17T10:37:40.616Z,-0.50
2022-12-17T10:43:01.463Z,-0.40
2022-12-17T10:48:21.970Z,-0.40
2022-12-17T10:53:43.581Z,-0.30
2022-12-17T10:59:06.303Z,-0.40
2022-12-17T11:04:44.979Z,-0.30
2022-12-17T11:10:10.367Z,-0.40
2022-12-17T11:15:57.832Z,-0.40
2022-12-17T11:21:26.222Z,-0.40
2022-12-17T11:26:51.752Z,-0.40
2022-12-17T11:32:42.235Z,-0.50
2022-12-17T11:38:18.119Z,-0.40
2022-12-17T11:43:44.543Z,-0.40
2022-12-17T11:49:11.851Z,-0.40
2022-12-17T11:55:01.584Z,-0.40
2022-12-17T12:00:39.139Z,-0.40
2022-12-17T12:06:08.470Z,-0.40
2022-12-17T12:11:32.094Z,-0.40
2022-12-17T12:17:18.966Z,-0.40
2022-12-17T12:22:53.160Z,-0.40
2022-12-17T12:28:44.386Z,-0.30
2022-12-17T12:34:10.921Z,-0.30
2022-12-17T12:39:37.942Z,-0.30
2022-12-17T12:45:41.234Z,-0.30
2022-12-17T12:51:16.172Z,-0.30
2022-12-17T12:57:08.515Z,-0.30
2022-12-17T13:02:38.081Z,-0.40
2022-12-17T13:08:23.280Z,-0.40
2022-12-17T13:14:16.694Z,-0.40
2022-12-17T13:19:25.123Z,-0.40
2022-12-17T13:24:28.089Z,-0.50
2022-12-17T13:29:35.817Z,-0.40
2022-12-17T13:34:50.723Z,-0.50
2022-12-17T13:40:18.943Z,-0.50
2022-12-17T13:51:10.273Z,-0.40
2022-12-17T13:56:15.499Z,-0.40
2022-12-17T14:01:27.635Z,-0.50
2022-12-17T14:06:36.993Z,-0.40
2022-12-17T14:11:57.425Z,-0.40
2022-12-17T14:17:02.371Z,-0.30
2022-12-17T14:22:06.899Z,-0.40
2022-12-17T14:27:23.442Z,-0.40
2022-12-17T14:32:36.147Z,-0.40
2022-12-17T14:37:38.027Z,-0.50
2022-12-17T14:42:39.886Z,-0.50
2022-12-17T14:48:01.461Z,-0.60
2022-12-17T14:53:23.907Z,-0.70
2022-12-17T14:58:26.803Z,-0.70
2022-12-17T15:03:31.323Z,-0.70
2022-12-17T15:08:46.242Z,-0.70
2022-12-17T15:13:53.047Z,-0.70
2022-12-17T15:18:58.367Z,-0.70
2022-12-17T15:24:00.246Z,-0.80
2022-12-17T15:29:02.508Z,-0.80
2022-12-17T15:34:04.406Z,-1.00
2022-12-17T15:39:07.096Z,-1.00
2022-12-17T15:44:09.223Z,-1.00
2022-12-17T15:49:11.073Z,-1.10
2022-12-17T15:54:13.043Z,-1.10
2022-12-17T15:59:14.978Z,-1.10
2022-12-17T16:04:23.080Z,-1.10
2022-12-17T16:09:27.129Z,-1.20
2022-12-17T16:14:29.009Z,-1.20
2022-12-17T16:19:30.788Z,-1.20
2022-12-17T16:24:32.668Z,-1.20
2022-12-17T16:29:34.678Z,-1.20
2022-12-17T16:34:36.499Z,-1.20
2022-12-17T16:39:38.343Z,-1.30
2022-12-17T16:44:40.340Z,-1.30
2022-12-17T16:49:42.171Z,-1.30
2022-12-17T16:54:43.982Z,-1.50
2022-12-17T16:59:45.965Z,-1.50
2022-12-17T17:04:47.810Z,-1.50
2022-12-17T17:09:49.676Z,-1.50
2022-12-17T17:14:51.565Z,-1.50
2022-12-17T17:19:53.569Z,-1.50
2022-12-17T17:24:55.479Z,-1.60
2022-12-17T17:30:03.245Z,-1.70
2022-12-17T17:35:06.356Z,-1.70
2022-12-17T17:40:08.841Z,-1.70
2022-12-17T17:45:11.187Z,-1.80
2022-12-17T17:50:13.022Z,-1.80
2022-12-17T21:38:26.177Z,-2.60
2022-12-17T22:30:53.887Z,-2.80
2022-12-17T22:37:49.108Z,-2.70
2022-12-17T22:48:11.416Z,-2.80
2022-12-17T22:53:32.998Z,-2.80
2022-12-17T22:58:52.263Z,-2.80
2022-12-17T23:04:27.721Z,-2.80
2022-12-17T23:09:44.762Z,-2.90
2022-12-17T23:20:42.202Z,-2.90
2022-12-17T23:26:12.029Z,-2.90
2022-12-17T23:31:35.269Z,-3.00
2022-12-17T23:36:53.872Z,-3.00
2022-12-17T23:42:34.767Z,-3.00
2022-12-17T23:54:22.680Z,-3.00
